sensor_id;sensor_type;location;lat;lon;timestamp;P1;durP1;ratioP1;P2;durP2;ratioP2
78406;SDS011;67692;51.074;-1.790;2023-05-14T00:00:43;23.95;;;12.90;;
78406;SDS011;67692;51.074;-1.790;2023-05-14T00:03:11;20.73;;;11.75;;
78406;SDS011;67692;51.074;-1.790;2023-05-14T00:05:39;20.95;;;12.15;;
78406;SDS011;67692;51.074;-1.790;2023-05-14T00:08:06;24.98;;;13.25;;
78406;SDS011;67692;51.074;-1.790;2023-05-14T00:10:32;25.20;;;12.18;;
78406;SDS011;67692;51.074;-1.790;2023-05-14T00:12:59;22.42;;;11.82;;
78406;SDS011;67692;51.074;-1.790;2023-05-14T00:15:26;22.92;;;11.60;;
78406;SDS011;67692;51.074;-1.790;2023-05-14T00:17:53;23.77;;;12.73;;
78406;SDS011;67692;51.074;-1.790;2023-05-14T00:20:19;24.45;;;12.05;;
78406;SDS011;67692;51.074;-1.790;2023-05-14T00:22:47;22.58;;;11.07;;
78406;SDS011;67692;51.074;-1.790;2023-05-14T00:25:14;21.42;;;11.90;;
78406;SDS011;67692;51.074;-1.790;2023-05-14T00:27:41;23.27;;;11.73;;
78406;SDS011;67692;51.074;-1.790;2023-05-14T00:30:07;21.70;;;12.65;;
78406;SDS011;67692;51.074;-1.790;2023-05-14T00:32:34;20.45;;;11.68;;
78406;SDS011;67692;51.074;-1.790;2023-05-14T00:35:01;23.02;;;12.18;;
78406;SDS011;67692;51.074;-1.790;2023-05-14T00:37:28;23.65;;;12.45;;
78406;SDS011;67692;51.074;-1.790;2023-05-14T00:39:56;23.60;;;13.50;;
78406;SDS011;67692;51.074;-1.790;2023-05-14T00:42:23;23.75;;;12.18;;
78406;SDS011;67692;51.074;-1.790;2023-05-14T00:44:50;26.80;;;12.50;;
78406;SDS011;67692;51.074;-1.790;2023-05-14T00:47:17;21.13;;;11.55;;
78406;SDS011;67692;51.074;-1.790;2023-05-14T00:49:44;25.38;;;12.00;;
78406;SDS011;67692;51.074;-1.790;2023-05-14T00:52:10;21.30;;;11.50;;
78406;SDS011;67692;51.074;-1.790;2023-05-14T00:54:37;22.55;;;11.82;;
78406;SDS011;67692;51.074;-1.790;2023-05-14T00:57:06;23.67;;;13.23;;
78406;SDS011;67692;51.074;-1.790;2023-05-14T00:59:33;21.27;;;11.50;;
78406;SDS011;67692;51.074;-1.790;2023-05-14T01:02:00;23.80;;;12.98;;
78406;SDS011;67692;51.074;-1.790;2023-05-14T01:04:26;23.15;;;12.63;;
78406;SDS011;67692;51.074;-1.790;2023-05-14T01:06:55;23.58;;;12.63;;
78406;SDS011;67692;51.074;-1.790;2023-05-14T01:09:35;21.00;;;11.80;;
78406;SDS011;67692;51.074;-1.790;2023-05-14T01:12:10;25.42;;;12.57;;
78406;SDS011;67692;51.074;-1.790;2023-05-14T01:14:47;24.95;;;12.32;;
78406;SDS011;67692;51.074;-1.790;2023-05-14T01:17:19;22.80;;;12.55;;
78406;SDS011;67692;51.074;-1.790;2023-05-14T01:19:47;23.90;;;11.32;;
78406;SDS011;67692;51.074;-1.790;2023-05-14T01:22:17;23.38;;;11.88;;
78406;SDS011;67692;51.074;-1.790;2023-05-14T01:24:43;27.52;;;13.52;;
78406;SDS011;67692;51.074;-1.790;2023-05-14T01:27:11;21.98;;;12.55;;
78406;SDS011;67692;51.074;-1.790;2023-05-14T01:29:44;25.00;;;12.95;;
78406;SDS011;67692;51.074;-1.790;2023-05-14T01:32:18;22.15;;;12.65;;
78406;SDS011;67692;51.074;-1.790;2023-05-14T01:37:17;24.98;;;12.45;;
78406;SDS011;67692;51.074;-1.790;2023-05-14T01:39:44;23.60;;;13.15;;
78406;SDS011;67692;51.074;-1.790;2023-05-14T01:42:11;21.90;;;12.30;;
78406;SDS011;67692;51.074;-1.790;2023-05-14T01:44:39;21.73;;;12.38;;
78406;SDS011;67692;51.074;-1.790;2023-05-14T01:47:05;22.55;;;12.55;;
78406;SDS011;67692;51.074;-1.790;2023-05-14T01:49:32;25.80;;;12.82;;
78406;SDS011;67692;51.074;-1.790;2023-05-14T01:51:58;24.33;;;12.93;;
78406;SDS011;67692;51.074;-1.790;2023-05-14T01:54:26;26.08;;;13.15;;
78406;SDS011;67692;51.074;-1.790;2023-05-14T01:56:53;24.15;;;13.13;;
78406;SDS011;67692;51.074;-1.790;2023-05-14T01:59:20;26.77;;;13.60;;
78406;SDS011;67692;51.074;-1.790;2023-05-14T02:01:46;27.60;;;12.50;;
78406;SDS011;67692;51.074;-1.790;2023-05-14T02:04:13;27.02;;;14.95;;
78406;SDS011;67692;51.074;-1.790;2023-05-14T02:06:39;28.95;;;13.75;;
78406;SDS011;67692;51.074;-1.790;2023-05-14T02:09:06;25.17;;;14.43;;
78406;SDS011;67692;51.074;-1.790;2023-05-14T02:11:34;26.23;;;14.63;;
78406;SDS011;67692;51.074;-1.790;2023-05-14T02:14:01;25.25;;;13.80;;
78406;SDS011;67692;51.074;-1.790;2023-05-14T02:16:27;25.23;;;13.77;;
78406;SDS011;67692;51.074;-1.790;2023-05-14T02:18:54;23.98;;;13.52;;
78406;SDS011;67692;51.074;-1.790;2023-05-14T02:21:21;29.92;;;15.68;;
78406;SDS011;67692;51.074;-1.790;2023-05-14T02:23:47;26.77;;;14.25;;
78406;SDS011;67692;51.074;-1.790;2023-05-14T02:26:14;31.85;;;14.95;;
78406;SDS011;67692;51.074;-1.790;2023-05-14T02:28:42;29.73;;;13.88;;
78406;SDS011;67692;51.074;-1.790;2023-05-14T02:31:09;31.42;;;15.25;;
78406;SDS011;67692;51.074;-1.790;2023-05-14T02:33:36;27.17;;;14.60;;
78406;SDS011;67692;51.074;-1.790;2023-05-14T02:36:02;27.08;;;14.57;;
78406;SDS011;67692;51.074;-1.790;2023-05-14T02:38:29;26.95;;;13.38;;
78406;SDS011;67692;51.074;-1.790;2023-05-14T02:40:56;29.80;;;14.48;;
78406;SDS011;67692;51.074;-1.790;2023-05-14T02:43:22;30.23;;;14.20;;
78406;SDS011;67692;51.074;-1.790;2023-05-14T02:45:50;29.52;;;15.27;;
78406;SDS011;67692;51.074;-1.790;2023-05-14T02:48:17;27.50;;;13.85;;
78406;SDS011;67692;51.074;-1.790;2023-05-14T02:50:43;28.38;;;15.57;;
78406;SDS011;67692;51.074;-1.790;2023-05-14T02:53:10;31.48;;;14.63;;
78406;SDS011;67692;51.074;-1.790;2023-05-14T02:55:37;28.20;;;14.48;;
78406;SDS011;67692;51.074;-1.790;2023-05-14T02:58:04;28.95;;;14.35;;
78406;SDS011;67692;51.074;-1.790;2023-05-14T03:00:30;26.40;;;14.40;;
78406;SDS011;67692;51.074;-1.790;2023-05-14T03:02:58;29.70;;;15.02;;
78406;SDS011;67692;51.074;-1.790;2023-05-14T03:05:25;27.73;;;15.77;;
78406;SDS011;67692;51.074;-1.790;2023-05-14T03:07:52;27.35;;;13.57;;
78406;SDS011;67692;51.074;-1.790;2023-05-14T03:10:18;25.88;;;13.73;;
78406;SDS011;67692;51.074;-1.790;2023-05-14T03:12:45;27.73;;;13.90;;
78406;SDS011;67692;51.074;-1.790;2023-05-14T03:15:12;24.48;;;13.32;;
78406;SDS011;67692;51.074;-1.790;2023-05-14T03:17:39;27.92;;;13.85;;
78406;SDS011;67692;51.074;-1.790;2023-05-14T03:20:07;27.77;;;12.68;;
78406;SDS011;67692;51.074;-1.790;2023-05-14T03:22:34;27.92;;;14.38;;
78406;SDS011;67692;51.074;-1.790;2023-05-14T03:25:01;27.63;;;13.77;;
78406;SDS011;67692;51.074;-1.790;2023-05-14T03:27:28;26.83;;;14.40;;
78406;SDS011;67692;51.074;-1.790;2023-05-14T03:29:54;28.23;;;13.15;;
78406;SDS011;67692;51.074;-1.790;2023-05-14T03:32:21;24.90;;;13.68;;
78406;SDS011;67692;51.074;-1.790;2023-05-14T03:34:47;25.05;;;13.93;;
78406;SDS011;67692;51.074;-1.790;2023-05-14T03:37:15;28.75;;;14.20;;
78406;SDS011;67692;51.074;-1.790;2023-05-14T03:39:42;30.33;;;14.73;;
78406;SDS011;67692;51.074;-1.790;2023-05-14T03:42:08;25.95;;;13.45;;
78406;SDS011;67692;51.074;-1.790;2023-05-14T03:44:35;26.75;;;14.40;;
78406;SDS011;67692;51.074;-1.790;2023-05-14T03:47:02;26.05;;;12.48;;
78406;SDS011;67692;51.074;-1.790;2023-05-14T03:49:28;29.58;;;14.82;;
78406;SDS011;67692;51.074;-1.790;2023-05-14T03:51:55;27.30;;;14.15;;
78406;SDS011;67692;51.074;-1.790;2023-05-14T03:54:24;29.65;;;14.60;;
78406;SDS011;67692;51.074;-1.790;2023-05-14T03:56:51;30.80;;;14.55;;
78406;SDS011;67692;51.074;-1.790;2023-05-14T03:59:17;28.00;;;13.30;;
78406;SDS011;67692;51.074;-1.790;2023-05-14T04:01:44;24.23;;;13.27;;
78406;SDS011;67692;51.074;-1.790;2023-05-14T04:04:11;27.17;;;13.75;;
78406;SDS011;67692;51.074;-1.790;2023-05-14T04:06:37;29.85;;;14.75;;
78406;SDS011;67692;51.074;-1.790;2023-05-14T04:09:04;26.52;;;12.05;;
78406;SDS011;67692;51.074;-1.790;2023-05-14T04:11:32;23.88;;;12.70;;
78406;SDS011;67692;51.074;-1.790;2023-05-14T04:13:58;28.38;;;12.52;;
78406;SDS011;67692;51.074;-1.790;2023-05-14T04:16:25;25.05;;;13.00;;
78406;SDS011;67692;51.074;-1.790;2023-05-14T04:18:51;26.08;;;13.50;;
78406;SDS011;67692;51.074;-1.790;2023-05-14T04:21:18;27.35;;;12.60;;
78406;SDS011;67692;51.074;-1.790;2023-05-14T04:23:44;27.60;;;12.70;;
78406;SDS011;67692;51.074;-1.790;2023-05-14T04:26:11;25.73;;;13.07;;
78406;SDS011;67692;51.074;-1.790;2023-05-14T04:28:39;24.60;;;11.88;;
78406;SDS011;67692;51.074;-1.790;2023-05-14T04:31:05;29.05;;;13.25;;
78406;SDS011;67692;51.074;-1.790;2023-05-14T04:33:32;26.40;;;12.48;;
78406;SDS011;67692;51.074;-1.790;2023-05-14T04:35:58;25.42;;;13.05;;
78406;SDS011;67692;51.074;-1.790;2023-05-14T04:38:26;28.63;;;14.43;;
78406;SDS011;67692;51.074;-1.790;2023-05-14T04:40:52;28.58;;;13.48;;
78406;SDS011;67692;51.074;-1.790;2023-05-14T04:43:19;27.90;;;13.77;;
78406;SDS011;67692;51.074;-1.790;2023-05-14T04:45:47;28.75;;;13.80;;
78406;SDS011;67692;51.074;-1.790;2023-05-14T04:48:13;29.15;;;13.85;;
78406;SDS011;67692;51.074;-1.790;2023-05-14T04:50:40;29.75;;;14.70;;
78406;SDS011;67692;51.074;-1.790;2023-05-14T04:53:08;27.88;;;13.43;;
78406;SDS011;67692;51.074;-1.790;2023-05-14T04:55:35;24.73;;;12.70;;
78406;SDS011;67692;51.074;-1.790;2023-05-14T04:58:02;27.67;;;14.00;;
78406;SDS011;67692;51.074;-1.790;2023-05-14T05:00:28;28.00;;;13.45;;
78406;SDS011;67692;51.074;-1.790;2023-05-14T05:02:56;26.30;;;13.55;;
78406;SDS011;67692;51.074;-1.790;2023-05-14T05:05:23;25.33;;;12.88;;
78406;SDS011;67692;51.074;-1.790;2023-05-14T05:07:49;23.67;;;13.27;;
78406;SDS011;67692;51.074;-1.790;2023-05-14T05:10:16;25.33;;;12.65;;
78406;SDS011;67692;51.074;-1.790;2023-05-14T05:12:43;25.38;;;12.93;;
78406;SDS011;67692;51.074;-1.790;2023-05-14T05:15:09;27.50;;;14.25;;
78406;SDS011;67692;51.074;-1.790;2023-05-14T05:17:36;27.88;;;13.65;;
78406;SDS011;67692;51.074;-1.790;2023-05-14T05:20:05;27.88;;;12.13;;
78406;SDS011;67692;51.074;-1.790;2023-05-14T05:22:34;25.30;;;12.70;;
78406;SDS011;67692;51.074;-1.790;2023-05-14T05:25:00;28.80;;;14.00;;
78406;SDS011;67692;51.074;-1.790;2023-05-14T05:27:29;24.92;;;13.25;;
78406;SDS011;67692;51.074;-1.790;2023-05-14T05:29:56;26.15;;;12.00;;
78406;SDS011;67692;51.074;-1.790;2023-05-14T05:32:22;27.58;;;13.38;;
78406;SDS011;67692;51.074;-1.790;2023-05-14T05:34:49;24.27;;;12.60;;
78406;SDS011;67692;51.074;-1.790;2023-05-14T05:37:17;28.10;;;13.45;;
78406;SDS011;67692;51.074;-1.790;2023-05-14T05:39:44;25.85;;;12.88;;
78406;SDS011;67692;51.074;-1.790;2023-05-14T05:42:12;28.30;;;13.00;;
78406;SDS011;67692;51.074;-1.790;2023-05-14T05:44:38;26.20;;;12.40;;
78406;SDS011;67692;51.074;-1.790;2023-05-14T05:47:05;24.75;;;12.55;;
78406;SDS011;67692;51.074;-1.790;2023-05-14T05:49:32;25.75;;;11.70;;
78406;SDS011;67692;51.074;-1.790;2023-05-14T05:52:00;27.27;;;12.63;;
78406;SDS011;67692;51.074;-1.790;2023-05-14T05:54:29;26.75;;;12.85;;
78406;SDS011;67692;51.074;-1.790;2023-05-14T05:56:57;26.00;;;12.63;;
78406;SDS011;67692;51.074;-1.790;2023-05-14T05:59:23;25.15;;;12.80;;
78406;SDS011;67692;51.074;-1.790;2023-05-14T06:01:50;26.40;;;13.27;;
78406;SDS011;67692;51.074;-1.790;2023-05-14T06:04:17;25.95;;;11.82;;
78406;SDS011;67692;51.074;-1.790;2023-05-14T06:06:44;25.60;;;13.25;;
78406;SDS011;67692;51.074;-1.790;2023-05-14T06:09:10;27.70;;;12.45;;
78406;SDS011;67692;51.074;-1.790;2023-05-14T06:11:38;27.48;;;13.25;;
78406;SDS011;67692;51.074;-1.790;2023-05-14T06:14:05;28.73;;;12.95;;
78406;SDS011;67692;51.074;-1.790;2023-05-14T06:16:32;27.63;;;13.52;;
78406;SDS011;67692;51.074;-1.790;2023-05-14T06:18:58;27.45;;;12.02;;
78406;SDS011;67692;51.074;-1.790;2023-05-14T06:21:26;27.23;;;13.15;;
78406;SDS011;67692;51.074;-1.790;2023-05-14T06:23:52;30.38;;;13.20;;
78406;SDS011;67692;51.074;-1.790;2023-05-14T06:26:19;27.05;;;13.23;;
78406;SDS011;67692;51.074;-1.790;2023-05-14T06:28:47;28.38;;;13.23;;
78406;SDS011;67692;51.074;-1.790;2023-05-14T06:31:14;26.50;;;12.38;;
78406;SDS011;67692;51.074;-1.790;2023-05-14T06:33:40;25.23;;;12.57;;
78406;SDS011;67692;51.074;-1.790;2023-05-14T06:36:07;23.52;;;11.40;;
78406;SDS011;67692;51.074;-1.790;2023-05-14T06:38:34;25.77;;;11.95;;
78406;SDS011;67692;51.074;-1.790;2023-05-14T06:41:01;20.48;;;10.90;;
78406;SDS011;67692;51.074;-1.790;2023-05-14T06:43:28;21.88;;;11.10;;
78406;SDS011;67692;51.074;-1.790;2023-05-14T06:45:56;23.17;;;10.88;;
78406;SDS011;67692;51.074;-1.790;2023-05-14T06:48:22;26.60;;;11.80;;
78406;SDS011;67692;51.074;-1.790;2023-05-14T06:50:51;25.65;;;11.77;;
78406;SDS011;67692;51.074;-1.790;2023-05-14T06:53:18;25.10;;;11.30;;
78406;SDS011;67692;51.074;-1.790;2023-05-14T06:55:46;23.85;;;10.82;;
78406;SDS011;67692;51.074;-1.790;2023-05-14T06:58:12;23.13;;;11.90;;
78406;SDS011;67692;51.074;-1.790;2023-05-14T07:00:39;22.30;;;11.65;;
78406;SDS011;67692;51.074;-1.790;2023-05-14T07:03:07;24.15;;;10.82;;
78406;SDS011;67692;51.074;-1.790;2023-05-14T07:05:34;23.20;;;11.65;;
78406;SDS011;67692;51.074;-1.790;2023-05-14T07:08:00;23.33;;;12.05;;
78406;SDS011;67692;51.074;-1.790;2023-05-14T07:10:27;23.70;;;12.15;;
78406;SDS011;67692;51.074;-1.790;2023-05-14T07:12:54;23.33;;;11.57;;
78406;SDS011;67692;51.074;-1.790;2023-05-14T07:15:21;23.15;;;11.23;;
78406;SDS011;67692;51.074;-1.790;2023-05-14T07:17:48;23.20;;;11.20;;
78406;SDS011;67692;51.074;-1.790;2023-05-14T07:20:16;21.83;;;11.43;;
78406;SDS011;67692;51.074;-1.790;2023-05-14T07:22:42;22.38;;;10.95;;
78406;SDS011;67692;51.074;-1.790;2023-05-14T07:25:09;22.40;;;11.20;;
78406;SDS011;67692;51.074;-1.790;2023-05-14T07:27:36;22.67;;;12.32;;
78406;SDS011;67692;51.074;-1.790;2023-05-14T07:30:02;22.50;;;11.57;;
78406;SDS011;67692;51.074;-1.790;2023-05-14T07:32:29;25.83;;;12.48;;
78406;SDS011;67692;51.074;-1.790;2023-05-14T07:34:56;24.73;;;12.32;;
78406;SDS011;67692;51.074;-1.790;2023-05-14T07:37:24;21.80;;;11.38;;
78406;SDS011;67692;51.074;-1.790;2023-05-14T07:39:51;25.67;;;11.15;;
78406;SDS011;67692;51.074;-1.790;2023-05-14T07:42:17;25.38;;;11.85;;
78406;SDS011;67692;51.074;-1.790;2023-05-14T07:44:44;23.65;;;11.57;;
78406;SDS011;67692;51.074;-1.790;2023-05-14T07:47:11;24.05;;;10.88;;
78406;SDS011;67692;51.074;-1.790;2023-05-14T07:49:37;22.38;;;10.98;;
78406;SDS011;67692;51.074;-1.790;2023-05-14T07:52:04;22.60;;;11.23;;
78406;SDS011;67692;51.074;-1.790;2023-05-14T07:54:32;22.45;;;11.70;;
78406;SDS011;67692;51.074;-1.790;2023-05-14T07:56:58;22.55;;;11.30;;
78406;SDS011;67692;51.074;-1.790;2023-05-14T07:59:25;21.35;;;10.77;;
78406;SDS011;67692;51.074;-1.790;2023-05-14T08:01:52;21.65;;;10.43;;
78406;SDS011;67692;51.074;-1.790;2023-05-14T08:04:18;23.27;;;11.63;;
78406;SDS011;67692;51.074;-1.790;2023-05-14T08:06:47;22.00;;;10.90;;
78406;SDS011;67692;51.074;-1.790;2023-05-14T08:09:14;22.80;;;11.23;;
78406;SDS011;67692;51.074;-1.790;2023-05-14T08:11:42;22.05;;;11.25;;
78406;SDS011;67692;51.074;-1.790;2023-05-14T08:14:09;23.77;;;12.40;;
78406;SDS011;67692;51.074;-1.790;2023-05-14T08:16:36;20.80;;;10.82;;
78406;SDS011;67692;51.074;-1.790;2023-05-14T08:19:02;22.60;;;10.80;;
78406;SDS011;67692;51.074;-1.790;2023-05-14T08:21:29;23.33;;;11.70;;
78406;SDS011;67692;51.074;-1.790;2023-05-14T08:23:56;23.25;;;11.85;;
78406;SDS011;67692;51.074;-1.790;2023-05-14T08:26:23;23.45;;;11.07;;
78406;SDS011;67692;51.074;-1.790;2023-05-14T08:28:51;24.85;;;13.40;;
78406;SDS011;67692;51.074;-1.790;2023-05-14T08:31:18;22.42;;;11.60;;
78406;SDS011;67692;51.074;-1.790;2023-05-14T08:33:44;23.42;;;12.77;;
78406;SDS011;67692;51.074;-1.790;2023-05-14T08:36:11;21.33;;;10.68;;
78406;SDS011;67692;51.074;-1.790;2023-05-14T08:38:38;20.25;;;10.75;;
78406;SDS011;67692;51.074;-1.790;2023-05-14T08:41:05;20.48;;;10.35;;
78406;SDS011;67692;51.074;-1.790;2023-05-14T08:43:35;19.35;;;10.13;;
78406;SDS011;67692;51.074;-1.790;2023-05-14T08:48:38;16.58;;;9.05;;
78406;SDS011;67692;51.074;-1.790;2023-05-14T08:51:07;18.08;;;9.48;;
78406;SDS011;67692;51.074;-1.790;2023-05-14T08:53:34;20.50;;;10.77;;
78406;SDS011;67692;51.074;-1.790;2023-05-14T08:56:02;21.83;;;10.55;;
78406;SDS011;67692;51.074;-1.790;2023-05-14T08:58:31;19.25;;;9.50;;
78406;SDS011;67692;51.074;-1.790;2023-05-14T09:00:58;20.27;;;10.88;;
78406;SDS011;67692;51.074;-1.790;2023-05-14T09:03:26;20.35;;;10.05;;
78406;SDS011;67692;51.074;-1.790;2023-05-14T09:05:54;18.45;;;9.88;;
78406;SDS011;67692;51.074;-1.790;2023-05-14T09:08:21;17.50;;;9.43;;
78406;SDS011;67692;51.074;-1.790;2023-05-14T09:10:48;15.85;;;8.38;;
78406;SDS011;67692;51.074;-1.790;2023-05-14T09:13:14;17.35;;;8.77;;
78406;SDS011;67692;51.074;-1.790;2023-05-14T09:15:41;17.60;;;9.13;;
78406;SDS011;67692;51.074;-1.790;2023-05-14T09:18:07;19.88;;;9.38;;
78406;SDS011;67692;51.074;-1.790;2023-05-14T09:20:36;18.30;;;9.80;;
78406;SDS011;67692;51.074;-1.790;2023-05-14T09:23:03;16.85;;;9.00;;
78406;SDS011;67692;51.074;-1.790;2023-05-14T09:25:30;16.50;;;8.63;;
78406;SDS011;67692;51.074;-1.790;2023-05-14T09:27:57;17.33;;;8.38;;
78406;SDS011;67692;51.074;-1.790;2023-05-14T09:30:24;18.23;;;10.13;;
78406;SDS011;67692;51.074;-1.790;2023-05-14T09:32:52;19.55;;;9.25;;
78406;SDS011;67692;51.074;-1.790;2023-05-14T09:35:19;17.73;;;9.38;;
78406;SDS011;67692;51.074;-1.790;2023-05-14T09:37:49;17.75;;;9.65;;
78406;SDS011;67692;51.074;-1.790;2023-05-14T09:40:17;18.83;;;9.57;;
78406;SDS011;67692;51.074;-1.790;2023-05-14T09:42:45;17.80;;;9.07;;
78406;SDS011;67692;51.074;-1.790;2023-05-14T09:45:13;17.23;;;8.55;;
78406;SDS011;67692;51.074;-1.790;2023-05-14T09:47:40;17.60;;;9.43;;
78406;SDS011;67692;51.074;-1.790;2023-05-14T09:50:09;15.88;;;8.45;;
78406;SDS011;67692;51.074;-1.790;2023-05-14T09:52:35;18.00;;;8.40;;
78406;SDS011;67692;51.074;-1.790;2023-05-14T09:55:05;17.85;;;9.82;;
78406;SDS011;67692;51.074;-1.790;2023-05-14T09:57:32;17.02;;;9.68;;
78406;SDS011;67692;51.074;-1.790;2023-05-14T09:59:59;17.45;;;9.07;;
78406;SDS011;67692;51.074;-1.790;2023-05-14T10:02:29;15.98;;;9.07;;
78406;SDS011;67692;51.074;-1.790;2023-05-14T10:05:01;17.70;;;10.10;;
78406;SDS011;67692;51.074;-1.790;2023-05-14T10:07:30;18.10;;;9.82;;
78406;SDS011;67692;51.074;-1.790;2023-05-14T10:10:01;19.35;;;9.98;;
78406;SDS011;67692;51.074;-1.790;2023-05-14T10:12:31;21.08;;;10.88;;
78406;SDS011;67692;51.074;-1.790;2023-05-14T10:15:00;19.88;;;10.60;;
78406;SDS011;67692;51.074;-1.790;2023-05-14T10:19:57;21.65;;;11.30;;
78406;SDS011;67692;51.074;-1.790;2023-05-14T10:22:28;19.73;;;10.82;;
78406;SDS011;67692;51.074;-1.790;2023-05-14T10:24:58;23.92;;;11.98;;
78406;SDS011;67692;51.074;-1.790;2023-05-14T10:27:25;21.80;;;11.55;;
78406;SDS011;67692;51.074;-1.790;2023-05-14T10:29:54;23.00;;;12.05;;
78406;SDS011;67692;51.074;-1.790;2023-05-14T10:32:21;23.80;;;12.60;;
78406;SDS011;67692;51.074;-1.790;2023-05-14T10:34:50;25.23;;;12.15;;
78406;SDS011;67692;51.074;-1.790;2023-05-14T10:37:17;23.27;;;12.13;;
78406;SDS011;67692;51.074;-1.790;2023-05-14T10:39:46;23.27;;;11.82;;
78406;SDS011;67692;51.074;-1.790;2023-05-14T10:42:15;20.80;;;11.27;;
78406;SDS011;67692;51.074;-1.790;2023-05-14T10:44:48;20.65;;;11.43;;
78406;SDS011;67692;51.074;-1.790;2023-05-14T10:47:17;20.05;;;10.77;;
78406;SDS011;67692;51.074;-1.790;2023-05-14T10:49:45;18.90;;;10.15;;
78406;SDS011;67692;51.074;-1.790;2023-05-14T10:52:17;19.05;;;9.70;;
78406;SDS011;67692;51.074;-1.790;2023-05-14T10:54:47;16.77;;;9.98;;
78406;SDS011;67692;51.074;-1.790;2023-05-14T10:57:16;21.70;;;11.15;;
78406;SDS011;67692;51.074;-1.790;2023-05-14T10:59:43;18.10;;;9.30;;
78406;SDS011;67692;51.074;-1.790;2023-05-14T11:02:19;23.08;;;11.20;;
78406;SDS011;67692;51.074;-1.790;2023-05-14T11:04:57;18.98;;;10.45;;
78406;SDS011;67692;51.074;-1.790;2023-05-14T11:07:28;20.23;;;10.98;;
78406;SDS011;67692;51.074;-1.790;2023-05-14T11:09:59;20.98;;;11.88;;
78406;SDS011;67692;51.074;-1.790;2023-05-14T11:12:27;18.02;;;9.98;;
78406;SDS011;67692;51.074;-1.790;2023-05-14T11:14:55;22.70;;;11.50;;
78406;SDS011;67692;51.074;-1.790;2023-05-14T11:17:25;17.02;;;10.15;;
78406;SDS011;67692;51.074;-1.790;2023-05-14T11:19:52;21.63;;;11.52;;
78406;SDS011;67692;51.074;-1.790;2023-05-14T11:22:19;20.23;;;10.52;;
78406;SDS011;67692;51.074;-1.790;2023-05-14T11:24:46;19.98;;;11.35;;
78406;SDS011;67692;51.074;-1.790;2023-05-14T11:27:12;18.15;;;10.52;;
78406;SDS011;67692;51.074;-1.790;2023-05-14T11:29:42;17.33;;;10.43;;
78406;SDS011;67692;51.074;-1.790;2023-05-14T11:32:09;17.40;;;10.27;;
78406;SDS011;67692;51.074;-1.790;2023-05-14T11:34:38;19.33;;;11.50;;
78406;SDS011;67692;51.074;-1.790;2023-05-14T11:37:05;18.15;;;10.43;;
78406;SDS011;67692;51.074;-1.790;2023-05-14T11:39:33;19.02;;;10.38;;
78406;SDS011;67692;51.074;-1.790;2023-05-14T11:42:01;19.98;;;11.55;;
78406;SDS011;67692;51.074;-1.790;2023-05-14T11:44:29;18.80;;;10.65;;
78406;SDS011;67692;51.074;-1.790;2023-05-14T11:46:57;16.92;;;10.27;;
78406;SDS011;67692;51.074;-1.790;2023-05-14T11:49:25;20.13;;;10.82;;
78406;SDS011;67692;51.074;-1.790;2023-05-14T11:51:57;19.40;;;11.30;;
78406;SDS011;67692;51.074;-1.790;2023-05-14T11:54:24;19.17;;;9.88;;
78406;SDS011;67692;51.074;-1.790;2023-05-14T11:56:52;17.92;;;10.38;;
78406;SDS011;67692;51.074;-1.790;2023-05-14T11:59:19;20.83;;;10.30;;
78406;SDS011;67692;51.074;-1.790;2023-05-14T12:01:46;13.98;;;8.93;;
78406;SDS011;67692;51.074;-1.790;2023-05-14T12:04:13;16.38;;;8.98;;
78406;SDS011;67692;51.074;-1.790;2023-05-14T12:06:40;15.70;;;8.82;;
78406;SDS011;67692;51.074;-1.790;2023-05-14T12:09:08;17.95;;;9.18;;
78406;SDS011;67692;51.074;-1.790;2023-05-14T12:11:40;18.48;;;9.43;;
78406;SDS011;67692;51.074;-1.790;2023-05-14T12:14:10;14.70;;;7.95;;
78406;SDS011;67692;51.074;-1.790;2023-05-14T12:16:38;17.13;;;9.18;;
78406;SDS011;67692;51.074;-1.790;2023-05-14T12:19:07;18.48;;;8.82;;
78406;SDS011;67692;51.074;-1.790;2023-05-14T12:21:35;11.98;;;7.80;;
78406;SDS011;67692;51.074;-1.790;2023-05-14T12:24:02;15.73;;;8.77;;
78406;SDS011;67692;51.074;-1.790;2023-05-14T12:26:32;15.27;;;8.05;;
78406;SDS011;67692;51.074;-1.790;2023-05-14T12:28:59;12.90;;;7.45;;
78406;SDS011;67692;51.074;-1.790;2023-05-14T12:31:27;12.45;;;6.85;;
78406;SDS011;67692;51.074;-1.790;2023-05-14T12:33:54;10.73;;;6.32;;
78406;SDS011;67692;51.074;-1.790;2023-05-14T12:36:21;13.02;;;6.38;;
78406;SDS011;67692;51.074;-1.790;2023-05-14T12:38:48;8.65;;;5.07;;
78406;SDS011;67692;51.074;-1.790;2023-05-14T12:41:15;9.95;;;5.13;;
78406;SDS011;67692;51.074;-1.790;2023-05-14T12:43:43;10.00;;;5.25;;
78406;SDS011;67692;51.074;-1.790;2023-05-14T12:46:12;10.13;;;4.25;;
78406;SDS011;67692;51.074;-1.790;2023-05-14T12:48:40;8.00;;;4.75;;
78406;SDS011;67692;51.074;-1.790;2023-05-14T12:51:07;10.18;;;5.45;;
78406;SDS011;67692;51.074;-1.790;2023-05-14T12:53:33;9.20;;;5.15;;
78406;SDS011;67692;51.074;-1.790;2023-05-14T12:56:00;11.82;;;6.20;;
78406;SDS011;67692;51.074;-1.790;2023-05-14T12:58:27;10.20;;;5.85;;
78406;SDS011;67692;51.074;-1.790;2023-05-14T13:00:55;8.40;;;4.93;;
78406;SDS011;67692;51.074;-1.790;2023-05-14T13:03:22;8.75;;;5.13;;
78406;SDS011;67692;51.074;-1.790;2023-05-14T13:05:49;8.88;;;5.32;;
78406;SDS011;67692;51.074;-1.790;2023-05-14T13:08:16;10.32;;;5.93;;
78406;SDS011;67692;51.074;-1.790;2023-05-14T13:10:45;10.30;;;5.60;;
78406;SDS011;67692;51.074;-1.790;2023-05-14T13:13:13;12.70;;;4.32;;
78406;SDS011;67692;51.074;-1.790;2023-05-14T13:15:40;13.38;;;4.10;;
78406;SDS011;67692;51.074;-1.790;2023-05-14T13:18:09;11.13;;;4.35;;
78406;SDS011;67692;51.074;-1.790;2023-05-14T13:20:36;6.82;;;3.92;;
78406;SDS011;67692;51.074;-1.790;2023-05-14T13:23:02;6.28;;;3.47;;
78406;SDS011;67692;51.074;-1.790;2023-05-14T13:25:29;8.82;;;3.75;;
78406;SDS011;67692;51.074;-1.790;2023-05-14T13:27:55;6.78;;;3.58;;
78406;SDS011;67692;51.074;-1.790;2023-05-14T13:30:22;6.15;;;3.38;;
78406;SDS011;67692;51.074;-1.790;2023-05-14T13:32:49;6.95;;;3.67;;
78406;SDS011;67692;51.074;-1.790;2023-05-14T13:35:17;6.15;;;3.13;;
78406;SDS011;67692;51.074;-1.790;2023-05-14T13:37:43;6.25;;;2.95;;
78406;SDS011;67692;51.074;-1.790;2023-05-14T13:40:10;6.43;;;2.65;;
78406;SDS011;67692;51.074;-1.790;2023-05-14T13:42:38;5.15;;;2.70;;
78406;SDS011;67692;51.074;-1.790;2023-05-14T13:45:05;7.72;;;2.40;;
78406;SDS011;67692;51.074;-1.790;2023-05-14T13:47:32;5.20;;;2.72;;
78406;SDS011;67692;51.074;-1.790;2023-05-14T13:49:58;4.40;;;2.40;;
78406;SDS011;67692;51.074;-1.790;2023-05-14T13:52:26;5.18;;;2.78;;
78406;SDS011;67692;51.074;-1.790;2023-05-14T13:54:53;6.30;;;3.67;;
78406;SDS011;67692;51.074;-1.790;2023-05-14T13:57:20;6.72;;;3.10;;
78406;SDS011;67692;51.074;-1.790;2023-05-14T13:59:47;6.47;;;2.63;;
78406;SDS011;67692;51.074;-1.790;2023-05-14T14:02:14;5.38;;;2.58;;
78406;SDS011;67692;51.074;-1.790;2023-05-14T14:04:40;5.75;;;2.13;;
78406;SDS011;67692;51.074;-1.790;2023-05-14T14:07:07;5.28;;;2.17;;
78406;SDS011;67692;51.074;-1.790;2023-05-14T14:09:35;5.55;;;2.38;;
78406;SDS011;67692;51.074;-1.790;2023-05-14T14:12:02;6.88;;;2.65;;
78406;SDS011;67692;51.074;-1.790;2023-05-14T14:14:29;7.10;;;3.40;;
78406;SDS011;67692;51.074;-1.790;2023-05-14T14:16:55;5.13;;;2.45;;
78406;SDS011;67692;51.074;-1.790;2023-05-14T14:19:22;5.13;;;2.30;;
78406;SDS011;67692;51.074;-1.790;2023-05-14T14:21:48;5.20;;;2.90;;